Terminal Aerodrome Forecast
Issued by NWS

Home | Current Version | Previous Version | Text Only | Print | Product List | Glossary On
Versions: 1 2 3 4 5 6 7 8 9 10 11 12 13
000
FTUS45 KGJT 301135
TAFMTJ
TAF
KMTJ 301135Z 3012/3112 14007KT P6SM SKC
     FM301500 VRB03KT P6SM SKC
     FM301800 35004KT P6SM FEW110
     FM302000 31008KT P6SM SCT110
     FM310300 14008KT P6SM SCT100=

USA.gov is the U.S. government's official web portal to all federal, state and local government web resources and services.